Time;durP1;ratioP1;P1;durP2;ratioP2;P2;SDS_P1;SDS_P2;PMS_P1;PMS_P2;Temp;Humidity;BMP_temperature;BMP_pressure;BME280_temperature;BME280_humidity;BME280_pressure;Samples;Min_cycle;Max_cycle;Signal;HPM_P1;HPM_P2
2023/12/15 00:01:27;;;;;;;14.98;8.77;;;5.30;99.90;;;;;;4966123;28;20068;-70
2023/12/15 00:03:52;;;;;;;18.08;10.95;;;5.30;99.90;;;;;;4964218;28;20089;-70
2023/12/15 00:06:18;;;;;;;22.65;10.45;;;5.40;99.90;;;;;;4966166;28;20058;-70
2023/12/15 00:08:44;;;;;;;22.45;10.45;;;5.30;99.90;;;;;;4964765;28;20042;-70
2023/12/15 00:11:09;;;;;;;15.63;8.75;;;5.40;99.90;;;;;;4964760;28;20129;-70
2023/12/15 00:13:35;;;;;;;16.67;9.07;;;5.40;99.90;;;;;;4966347;28;20074;-70
2023/12/15 00:16:01;;;;;;;16.55;8.93;;;5.40;99.90;;;;;;4948533;28;20505;-70
2023/12/15 00:18:26;;;;;;;16.65;9.15;;;5.50;99.90;;;;;;4984230;28;20057;-70
2023/12/15 00:20:58;;;;;;;20.75;9.75;;;5.40;99.90;;;;;;4949314;28;20081;-70
2023/12/15 00:23:24;;;;;;;16.23;9.80;;;5.40;99.90;;;;;;4966071;28;20046;-70
2023/12/15 00:25:49;;;;;;;20.88;9.82;;;5.30;99.90;;;;;;4964820;28;20086;-70
2023/12/15 00:28:15;;;;;;;18.15;9.02;;;5.40;99.90;;;;;;4965703;28;20741;-70
2023/12/15 00:30:41;;;;;;;21.27;10.13;;;5.40;99.90;;;;;;4965118;28;20473;-70
2023/12/15 00:33:06;;;;;;;15.15;9.23;;;5.40;99.90;;;;;;4948199;28;20054;-70
2023/12/15 00:35:32;;;;;;;17.88;9.80;;;5.40;99.90;;;;;;4949965;28;20572;-70
2023/12/15 00:37:58;;;;;;;18.95;10.10;;;5.40;99.90;;;;;;4964422;28;20050;-70
2023/12/15 00:40:23;;;;;;;15.57;9.23;;;5.40;99.90;;;;;;4965271;28;20700;-70
2023/12/15 00:42:49;;;;;;;16.92;9.35;;;5.40;99.90;;;;;;4963726;28;20133;-70
2023/12/15 00:45:15;;;;;;;19.63;9.57;;;5.40;99.90;;;;;;4965938;28;20101;-70
2023/12/15 00:47:41;;;;;;;16.02;9.13;;;5.50;99.90;;;;;;4949011;28;20046;-70
2023/12/15 00:50:08;;;;;;;17.08;9.68;;;5.50;99.90;;;;;;4948612;28;20042;-70
2023/12/15 00:52:34;;;;;;;14.27;8.45;;;5.50;99.90;;;;;;4968908;28;20519;-70
2023/12/15 00:55:01;;;;;;;15.43;8.68;;;5.60;99.90;;;;;;4968095;28;20410;-70
2023/12/15 00:57:26;;;;;;;14.95;8.98;;;5.50;99.90;;;;;;4969667;28;20321;-70
2023/12/15 00:59:52;;;;;;;20.20;8.88;;;5.60;99.90;;;;;;4951965;28;20497;-70
2023/12/15 01:02:18;;;;;;;13.15;8.10;;;5.60;99.90;;;;;;4967465;28;20045;-70
2023/12/15 01:04:43;;;;;;;16.23;9.50;;;5.60;99.90;;;;;;4951206;28;20038;-70
2023/12/15 01:07:09;;;;;;;18.35;9.68;;;5.70;99.90;;;;;;4968661;28;20160;-70
2023/12/15 01:09:35;;;;;;;15.95;8.45;;;5.60;99.90;;;;;;4953060;28;20068;-70
2023/12/15 01:12:01;;;;;;;20.75;9.25;;;5.60;99.90;;;;;;4968527;28;20047;-70
2023/12/15 01:14:26;;;;;;;13.15;8.32;;;5.70;99.90;;;;;;4968691;28;20046;-70
2023/12/15 01:16:52;;;;;;;14.73;8.27;;;5.70;99.90;;;;;;4968442;28;20058;-70
2023/12/15 01:19:18;;;;;;;16.75;7.38;;;5.70;99.90;;;;;;4952371;28;20478;-70
2023/12/15 01:21:44;;;;;;;16.13;9.48;;;5.80;99.90;;;;;;4967240;28;20054;-70
2023/12/15 01:24:12;;;;;;;12.75;6.72;;;5.80;99.90;;;;;;4952494;28;20389;-70
2023/12/15 01:26:38;;;;;;;16.48;9.35;;;5.80;99.90;;;;;;4952024;28;20057;-70
2023/12/15 01:29:04;;;;;;;17.63;9.70;;;5.80;99.90;;;;;;4968614;28;20054;-70
2023/12/15 01:31:30;;;;;;;18.83;9.68;;;5.90;99.90;;;;;;4968512;28;20046;-70
2023/12/15 01:33:56;;;;;;;21.08;9.20;;;5.90;99.90;;;;;;4951585;28;20464;-70
2023/12/15 01:36:22;;;;;;;22.08;9.77;;;5.90;99.90;;;;;;4968753;28;20046;-70
2023/12/15 01:38:48;;;;;;;10.07;6.45;;;5.90;99.90;;;;;;4967407;28;20062;-70
2023/12/15 01:41:14;;;;;;;16.83;8.98;;;5.80;99.90;;;;;;4969097;28;20047;-70
2023/12/15 01:43:40;;;;;;;23.73;10.02;;;5.90;99.90;;;;;;4951970;28;20367;-70
2023/12/15 01:46:06;;;;;;;17.23;9.90;;;6.00;99.90;;;;;;4967884;28;20505;-70
2023/12/15 01:48:32;;;;;;;19.42;9.93;;;5.90;99.90;;;;;;4968311;28;20049;-70
2023/12/15 01:50:58;;;;;;;18.95;9.85;;;6.00;99.90;;;;;;4967264;28;20066;-70
2023/12/15 01:53:24;;;;;;;19.83;10.30;;;6.00;99.90;;;;;;4984410;28;20489;-70
2023/12/15 01:55:49;;;;;;;17.70;9.15;;;6.10;99.90;;;;;;4966910;28;20058;-70
2023/12/15 01:58:15;;;;;;;19.65;9.10;;;6.00;99.90;;;;;;4968535;28;20455;-70
2023/12/15 02:00:41;;;;;;;21.83;10.35;;;6.00;99.90;;;;;;4967027;28;20146;-70
2023/12/15 02:03:07;;;;;;;21.75;9.43;;;6.00;99.90;;;;;;4967901;28;20049;-70
2023/12/15 02:05:32;;;;;;;17.63;10.68;;;6.00;99.90;;;;;;4966931;28;20050;-70
2023/12/15 02:07:59;;;;;;;16.58;9.23;;;6.10;99.90;;;;;;4967918;28;20161;-70
2023/12/15 02:10:25;;;;;;;24.67;11.43;;;6.00;99.90;;;;;;4951797;28;20053;-70
2023/12/15 02:12:51;;;;;;;19.10;10.70;;;6.10;99.90;;;;;;4966774;28;20058;-70
2023/12/15 02:15:17;;;;;;;18.75;10.00;;;6.10;99.90;;;;;;4968342;28;20372;-70
2023/12/15 02:17:43;;;;;;;22.08;10.20;;;6.10;99.90;;;;;;4966201;28;20101;-70
2023/12/15 02:20:09;;;;;;;19.13;10.13;;;6.10;99.90;;;;;;4968596;28;20046;-70
2023/12/15 02:22:35;;;;;;;20.52;9.38;;;6.10;99.90;;;;;;4966694;28;20647;-70
2023/12/15 02:25:01;;;;;;;19.63;9.65;;;6.10;99.90;;;;;;4967732;28;20437;-70
2023/12/15 02:27:26;;;;;;;27.08;10.55;;;6.20;99.90;;;;;;4967655;28;20050;-70
2023/12/15 02:29:52;;;;;;;20.75;10.85;;;6.20;99.90;;;;;;4950537;28;20136;-70
2023/12/15 02:32:18;;;;;;;22.33;11.13;;;6.20;99.90;;;;;;4968475;28;20050;-70
2023/12/15 02:34:43;;;;;;;18.48;9.90;;;6.20;99.90;;;;;;4966242;28;20056;-70
2023/12/15 02:37:09;;;;;;;27.40;12.45;;;6.30;99.90;;;;;;4967694;28;20517;-70
2023/12/15 02:39:38;;;;;;;26.30;12.13;;;6.20;99.90;;;;;;4949920;28;20515;-69
2023/12/15 02:42:05;;;;;;;26.75;11.15;;;6.30;99.90;;;;;;4952019;28;20421;-70
2023/12/15 02:44:31;;;;;;;15.73;9.43;;;6.20;99.90;;;;;;4967124;28;20058;-70
2023/12/15 02:46:56;;;;;;;29.45;11.57;;;6.30;99.90;;;;;;4966465;28;20061;-70
2023/12/15 02:49:22;;;;;;;21.83;11.77;;;6.20;99.90;;;;;;4967177;28;20054;-70
2023/12/15 02:51:48;;;;;;;19.90;10.13;;;6.30;99.90;;;;;;4965923;28;20050;-70
2023/12/15 02:54:14;;;;;;;21.10;10.63;;;6.30;99.90;;;;;;4967978;28;20873;-70
2023/12/15 02:56:39;;;;;;;21.95;8.93;;;6.30;99.90;;;;;;4949804;28;20132;-70
2023/12/15 02:59:05;;;;;;;12.68;7.53;;;6.40;99.90;;;;;;4967511;28;20038;-70
2023/12/15 03:01:31;;;;;;;10.40;6.90;;;6.40;99.90;;;;;;4966076;28;20489;-69
2023/12/15 03:03:57;;;;;;;27.98;10.50;;;6.50;99.90;;;;;;4966820;28;20057;-70
2023/12/15 03:06:22;;;;;;;22.70;9.20;;;6.50;99.90;;;;;;4967209;28;20061;-70
2023/12/15 03:08:48;;;;;;;11.52;5.65;;;6.40;99.90;;;;;;4964316;28;20051;-70
2023/12/15 03:11:14;;;;;;;13.93;7.10;;;6.50;99.90;;;;;;4985155;28;20053;-70
2023/12/15 03:13:40;;;;;;;27.67;10.55;;;6.50;99.90;;;;;;4965674;28;20156;-70
2023/12/15 03:16:10;;;;;;;15.27;7.95;;;6.50;99.90;;;;;;4967173;28;20512;-70
2023/12/15 03:18:37;;;;;;;19.77;7.90;;;6.60;99.90;;;;;;4965912;28;20177;-70
2023/12/15 03:21:03;;;;;;;23.23;7.65;;;6.50;99.90;;;;;;4963778;28;20452;-70
2023/12/15 03:23:29;;;;;;;16.00;7.50;;;6.50;99.90;;;;;;4950737;28;20043;-70
2023/12/15 03:25:55;;;;;;;20.52;9.60;;;6.50;99.90;;;;;;4965923;28;20143;-70
2023/12/15 03:28:21;;;;;;;19.80;10.13;;;6.50;99.90;;;;;;4967520;28;20108;-70
2023/12/15 03:30:48;;;;;;;26.13;10.75;;;6.50;99.90;;;;;;4948648;28;20514;-70
2023/12/15 03:33:14;;;;;;;21.40;9.85;;;6.40;99.90;;;;;;4966117;28;20074;-70
2023/12/15 03:35:40;;;;;;;25.65;10.35;;;6.50;99.90;;;;;;4981620;28;20124;-70
2023/12/15 03:38:05;;;;;;;28.08;11.85;;;6.50;99.90;;;;;;4966728;28;20489;-70
2023/12/15 03:40:32;;;;;;;23.63;10.73;;;6.40;99.90;;;;;;4965367;28;20069;-70
2023/12/15 03:42:58;;;;;;;37.75;12.75;;;6.40;99.90;;;;;;4949954;28;20046;-70
2023/12/15 03:45:25;;;;;;;24.67;11.60;;;6.40;99.90;;;;;;4984585;28;20116;-70
2023/12/15 03:47:51;;;;;;;24.20;11.07;;;6.40;99.90;;;;;;4964566;28;20062;-70
2023/12/15 03:50:16;;;;;;;31.85;11.73;;;6.40;99.90;;;;;;4966015;28;20050;-70
2023/12/15 03:52:42;;;;;;;32.45;12.23;;;6.40;99.90;;;;;;4964407;28;20161;-70
2023/12/15 03:55:08;;;;;;;24.83;10.77;;;6.40;99.90;;;;;;4966714;28;20050;-70
2023/12/15 03:57:34;;;;;;;28.48;12.25;;;6.40;99.90;;;;;;4949454;28;20058;-70
2023/12/15 03:59:59;;;;;;;23.63;12.18;;;6.40;99.90;;;;;;4966490;28;20051;-70
2023/12/15 04:02:25;;;;;;;25.05;10.82;;;6.30;99.90;;;;;;4966186;28;20460;-70
2023/12/15 04:04:51;;;;;;;24.65;10.35;;;6.30;99.90;;;;;;4964699;28;20484;-70
2023/12/15 04:07:17;;;;;;;29.27;10.65;;;6.30;99.90;;;;;;4950345;28;20048;-70
2023/12/15 04:09:42;;;;;;;23.60;10.40;;;6.30;99.90;;;;;;4964429;28;20116;-70
2023/12/15 04:12:08;;;;;;;31.23;11.23;;;6.20;99.90;;;;;;4950053;28;20057;-70
2023/12/15 04:14:34;;;;;;;21.30;10.40;;;6.20;99.90;;;;;;4964523;28;20046;-70
2023/12/15 04:17:00;;;;;;;23.77;10.60;;;6.10;99.90;;;;;;4950112;28;20058;-70
2023/12/15 04:19:26;;;;;;;28.08;11.10;;;6.10;99.90;;;;;;4965092;28;20042;-70
2023/12/15 04:21:52;;;;;;;24.80;10.45;;;6.10;99.90;;;;;;4948842;28;20421;-70
2023/12/15 04:24:21;;;;;;;24.30;10.52;;;6.10;99.90;;;;;;4983947;28;20076;-70
2023/12/15 04:26:46;;;;;;;22.25;10.20;;;6.10;99.90;;;;;;4963587;28;20054;-70
2023/12/15 04:29:12;;;;;;;20.38;10.38;;;6.10;99.90;;;;;;4950123;28;20832;-70
2023/12/15 04:31:37;;;;;;;21.98;10.18;;;6.00;99.90;;;;;;4963427;28;20064;-69
2023/12/15 04:34:03;;;;;;;30.05;11.05;;;6.00;99.90;;;;;;4950100;28;20061;-70
2023/12/15 04:36:29;;;;;;;18.40;9.80;;;5.90;99.90;;;;;;4949164;28;20049;-70
2023/12/15 04:38:55;;;;;;;23.10;10.48;;;6.00;99.90;;;;;;4964918;28;20060;-70
2023/12/15 04:41:24;;;;;;;30.27;10.48;;;6.00;99.90;;;;;;4965840;28;20441;-70
2023/12/15 04:43:50;;;;;;;22.57;10.93;;;6.00;99.90;;;;;;4963745;28;20056;-70
2023/12/15 04:46:30;;;;;;;28.75;11.50;;;5.90;99.90;;;;;;4966051;28;20054;-70
2023/12/15 04:48:59;;;;;;;24.45;10.48;;;5.90;99.90;;;;;;4963718;28;20046;-69
2023/12/15 04:51:25;;;;;;;23.00;11.05;;;5.80;99.90;;;;;;4965148;28;20050;-71
2023/12/15 04:53:51;;;;;;;21.90;9.93;;;5.90;99.90;;;;;;4932447;28;20057;-70
2023/12/15 04:56:17;;;;;;;28.30;10.68;;;5.90;99.90;;;;;;4948920;28;20046;-70
2023/12/15 04:58:44;;;;;;;23.55;10.20;;;6.00;99.90;;;;;;4965475;28;20034;-70
2023/12/15 05:01:13;;;;;;;23.75;9.75;;;5.90;99.90;;;;;;4963876;28;20764;-70
2023/12/15 05:03:43;;;;;;;21.00;9.52;;;6.00;99.90;;;;;;4965645;28;20050;-70
2023/12/15 05:06:19;;;;;;;24.27;8.63;;;6.00;99.90;;;;;;4947988;28;20082;-70
2023/12/15 05:08:45;;;;;;;23.27;10.65;;;6.00;99.90;;;;;;4964714;28;20058;-70
2023/12/15 05:11:11;;;;;;;20.45;8.15;;;6.10;99.90;;;;;;4965232;28;20042;-70
2023/12/15 05:13:37;;;;;;;24.33;8.00;;;6.10;99.90;;;;;;4964822;28;20051;-70
2023/12/15 05:16:03;;;;;;;26.83;10.07;;;6.10;99.90;;;;;;4965188;28;20778;-70
2023/12/15 05:18:28;;;;;;;20.70;9.30;;;6.10;99.90;;;;;;4948253;28;20058;-70
2023/12/15 05:20:54;;;;;;;20.15;8.52;;;6.10;99.90;;;;;;4964713;28;20542;-69
2023/12/15 05:23:19;;;;;;;24.02;8.75;;;6.00;99.90;;;;;;4964001;28;20421;-70
2023/12/15 05:25:45;;;;;;;23.33;9.55;;;6.10;99.90;;;;;;4965779;28;20133;-70
2023/12/15 05:28:11;;;;;;;30.98;10.18;;;6.10;99.90;;;;;;4945076;28;20039;-70
2023/12/15 05:30:36;;;;;;;21.10;8.80;;;6.10;99.90;;;;;;4956847;28;20485;-70
2023/12/15 05:33:02;;;;;;;15.50;8.27;;;6.20;99.90;;;;;;4964524;28;20122;-70
2023/12/15 05:35:28;;;;;;;20.17;8.68;;;6.10;99.90;;;;;;4964013;28;20062;-70
2023/12/15 05:37:54;;;;;;;28.60;9.23;;;6.10;99.90;;;;;;4966921;28;20054;-70
2023/12/15 05:40:20;;;;;;;18.83;7.70;;;6.10;99.90;;;;;;4967126;28;20046;-70
2023/12/15 05:42:45;;;;;;;25.70;8.80;;;6.10;99.90;;;;;;4952526;28;20058;-70
2023/12/15 05:45:12;;;;;;;28.08;7.95;;;6.10;99.90;;;;;;4951409;28;20058;-70
2023/12/15 05:47:39;;;;;;;21.55;5.78;;;6.00;99.90;;;;;;4986761;28;20108;-70
2023/12/15 05:50:06;;;;;;;13.20;7.10;;;6.00;99.90;;;;;;4949342;28;20765;-71
2023/12/15 05:52:31;;;;;;;30.42;7.85;;;6.00;99.90;;;;;;5029876;23;20129;-70
2023/12/15 05:54:57;;;;;;;27.80;8.07;;;6.10;99.90;;;;;;5000217;28;20497;-70
2023/12/15 05:57:23;;;;;;;19.70;7.07;;;6.10;99.90;;;;;;4988633;28;20504;-70
2023/12/15 05:59:49;;;;;;;21.70;7.43;;;6.00;99.90;;;;;;5021145;28;20052;-70
2023/12/15 06:02:14;;;;;;;13.48;5.03;;;6.10;99.90;;;;;;5020886;28;20045;-70
2023/12/15 06:04:40;;;;;;;17.17;6.03;;;6.10;99.90;;;;;;4989000;28;20045;-70
2023/12/15 06:07:06;;;;;;;21.00;6.40;;;6.10;99.90;;;;;;4987268;28;20081;-70
2023/12/15 06:09:31;;;;;;;9.38;5.07;;;6.10;99.90;;;;;;4988282;28;20426;-70
2023/12/15 06:11:57;;;;;;;26.45;6.47;;;6.10;99.90;;;;;;4987160;28;20050;-70
2023/12/15 06:14:23;;;;;;;26.58;6.38;;;6.10;99.90;;;;;;4989182;28;20045;-70
2023/12/15 06:16:51;;;;;;;27.42;6.32;;;6.10;99.90;;;;;;4988063;28;20049;-70
2023/12/15 06:19:16;;;;;;;22.42;5.40;;;6.10;99.90;;;;;;4988330;28;20065;-70
2023/12/15 06:21:42;;;;;;;24.70;5.97;;;6.10;99.90;;;;;;5004973;28;20046;-69
2023/12/15 06:24:08;;;;;;;19.00;5.47;;;6.00;99.90;;;;;;4986769;28;20395;-70
2023/12/15 06:26:33;;;;;;;21.33;5.82;;;6.00;99.90;;;;;;5004838;28;20053;-70
2023/12/15 06:28:59;;;;;;;12.50;4.85;;;5.90;99.90;;;;;;4986625;28;20063;-70
2023/12/15 06:31:29;;;;;;;19.23;6.32;;;5.90;99.90;;;;;;5020934;28;20049;-70
2023/12/15 06:33:55;;;;;;;8.73;4.28;;;5.80;99.90;;;;;;4986563;28;20058;-70
2023/12/15 06:36:21;;;;;;;17.73;4.75;;;5.80;99.90;;;;;;4988522;28;20392;-70
2023/12/15 06:38:46;;;;;;;13.05;4.57;;;5.80;99.90;;;;;;5005950;28;20045;-70
2023/12/15 06:41:13;;;;;;;10.52;4.22;;;5.90;99.90;;;;;;5005050;28;20530;-70
2023/12/15 06:43:40;;;;;;;26.25;5.25;;;5.90;99.90;;;;;;5020850;28;20093;-70
2023/12/15 06:46:06;;;;;;;26.23;5.97;;;6.00;99.90;;;;;;4986796;28;20104;-71
2023/12/15 06:48:33;;;;;;;18.58;5.90;;;6.10;99.90;;;;;;4987652;28;20038;-70
2023/12/15 06:50:59;;;;;;;27.90;6.15;;;6.00;99.90;;;;;;5019043;28;20057;-70
2023/12/15 06:53:24;;;;;;;22.83;5.75;;;6.10;99.90;;;;;;4988015;28;20050;-70
2023/12/15 06:55:50;;;;;;;13.35;5.00;;;6.10;99.90;;;;;;4987012;28;20042;-70
2023/12/15 06:58:16;;;;;;;39.78;6.47;;;6.10;99.90;;;;;;4987328;28;20100;-70
2023/12/15 07:00:42;;;;;;;20.23;5.90;;;6.20;99.90;;;;;;5020440;28;20067;-70
2023/12/15 07:03:08;;;;;;;25.95;5.95;;;6.10;99.90;;;;;;4986680;28;20048;-70
2023/12/15 07:05:37;;;;;;;32.40;6.40;;;6.10;99.90;;;;;;4988239;28;20104;-70
2023/12/15 07:08:03;;;;;;;16.85;5.78;;;6.10;99.90;;;;;;5003926;28;20081;-71
2023/12/15 07:10:29;;;;;;;13.13;5.38;;;6.20;99.90;;;;;;5036483;28;20586;-70
2023/12/15 07:12:56;;;;;;;34.03;6.47;;;6.10;99.90;;;;;;5005899;28;20084;-70
2023/12/15 07:15:22;;;;;;;33.83;5.63;;;6.10;99.90;;;;;;4987446;28;20054;-70
2023/12/15 07:17:48;;;;;;;23.52;5.80;;;6.00;99.90;;;;;;5020065;28;20517;-70
2023/12/15 07:20:14;;;;;;;29.02;6.22;;;5.90;99.90;;;;;;5019349;28;20045;-70
2023/12/15 07:22:40;;;;;;;21.50;6.07;;;5.90;99.90;;;;;;5014528;28;20046;-70
2023/12/15 07:25:06;;;;;;;13.57;3.90;;;5.90;99.90;;;;;;5003352;28;20050;-70
2023/12/15 07:27:31;;;;;;;29.00;5.32;;;5.90;99.90;;;;;;5004248;28;20487;-70
2023/12/15 07:29:58;;;;;;;25.08;6.03;;;6.00;99.90;;;;;;4986469;28;20061;-70
2023/12/15 07:32:24;;;;;;;23.30;5.35;;;6.00;99.90;;;;;;5019721;28;20058;-70
2023/12/15 07:34:49;;;;;;;26.40;5.50;;;6.10;99.90;;;;;;4986213;28;20054;-70
2023/12/15 07:37:15;;;;;;;26.70;7.03;;;6.00;99.90;;;;;;4985807;28;20065;-70
2023/12/15 07:39:41;;;;;;;21.75;5.78;;;6.00;99.90;;;;;;4987874;28;20061;-70
2023/12/15 07:42:06;;;;;;;22.67;5.18;;;6.00;99.90;;;;;;4988872;28;20532;-70
2023/12/15 07:44:32;;;;;;;25.33;6.30;;;6.10;99.90;;;;;;4989766;28;20053;-70
2023/12/15 07:46:58;;;;;;;13.32;4.88;;;6.00;99.90;;;;;;4991649;28;20159;-70
2023/12/15 07:49:24;;;;;;;16.25;5.60;;;6.00;99.90;;;;;;4993291;28;20041;-70
2023/12/15 07:51:50;;;;;;;19.85;6.13;;;6.00;99.90;;;;;;4992489;28;20171;-69
2023/12/15 07:54:18;;;;;;;27.88;5.85;;;6.00;99.90;;;;;;4984456;28;20057;-70
2023/12/15 07:56:44;;;;;;;19.15;5.55;;;6.10;99.90;;;;;;4985303;28;20499;-70
2023/12/15 07:59:10;;;;;;;25.77;5.10;;;6.10;99.90;;;;;;4983119;28;20048;-70
2023/12/15 08:01:36;;;;;;;24.60;4.82;;;6.10;99.90;;;;;;4982443;28;20053;-70
2023/12/15 08:04:02;;;;;;;31.90;5.57;;;6.10;99.90;;;;;;4981288;28;20046;-70
2023/12/15 08:06:37;;;;;;;20.90;4.70;;;6.20;99.90;;;;;;4996962;28;20589;-70
2023/12/15 08:09:02;;;;;;;22.20;5.55;;;6.20;99.90;;;;;;4984033;28;20053;-70
2023/12/15 08:11:28;;;;;;;19.92;4.85;;;6.30;99.90;;;;;;4987482;28;20057;-70
2023/12/15 08:13:54;;;;;;;24.00;4.85;;;6.30;99.90;;;;;;4984978;28;20050;-70
2023/12/15 08:16:19;;;;;;;23.92;4.63;;;6.30;99.90;;;;;;4987857;28;20046;-70
2023/12/15 08:18:45;;;;;;;26.52;4.60;;;6.40;99.90;;;;;;4968994;28;20058;-70
2023/12/15 08:21:11;;;;;;;23.50;5.03;;;6.50;99.90;;;;;;4981423;28;20083;-70
2023/12/15 08:23:37;;;;;;;21.38;4.70;;;6.50;99.90;;;;;;4973646;28;20053;-70
2023/12/15 08:26:02;;;;;;;24.77;4.70;;;6.50;99.90;;;;;;4987742;28;20415;-70
2023/12/15 08:28:28;;;;;;;21.60;4.47;;;6.50;99.90;;;;;;5008341;28;20072;-70
2023/12/15 08:30:54;;;;;;;28.48;5.15;;;6.60;99.90;;;;;;5007169;28;20069;-70
2023/12/15 08:33:20;;;;;;;20.58;5.07;;;6.60;99.90;;;;;;4981968;28;20065;-70
2023/12/15 08:35:46;;;;;;;19.02;5.15;;;6.60;99.90;;;;;;4983195;28;20081;-70
2023/12/15 08:38:12;;;;;;;23.02;4.63;;;6.50;99.90;;;;;;4996053;28;20052;-70
2023/12/15 08:40:37;;;;;;;24.85;5.35;;;6.50;99.90;;;;;;4985023;28;20042;-70
2023/12/15 08:43:03;;;;;;;16.88;3.50;;;6.50;99.90;;;;;;4983346;28;20053;-70
2023/12/15 08:45:29;;;;;;;18.55;4.57;;;6.50;99.90;;;;;;4984048;28;20042;-70
2023/12/15 08:47:54;;;;;;;8.55;3.20;;;6.60;99.90;;;;;;5016677;28;20507;-70
2023/12/15 08:50:20;;;;;;;25.25;5.03;;;6.70;99.90;;;;;;4983127;28;20041;-70
2023/12/15 08:52:46;;;;;;;9.50;2.67;;;6.70;99.90;;;;;;4990074;28;20049;-70
2023/12/15 08:55:12;;;;;;;20.20;4.15;;;6.70;99.90;;;;;;4993248;28;20073;-70
2023/12/15 08:57:37;;;;;;;7.65;2.55;;;6.90;99.90;;;;;;4990469;28;20126;-70
2023/12/15 09:00:04;;;;;;;17.05;3.88;;;6.90;99.90;;;;;;5004370;28;20045;-70
2023/12/15 09:02:30;;;;;;;17.38;4.32;;;6.80;99.90;;;;;;4996128;28;20368;-70
2023/12/15 09:04:56;;;;;;;20.13;3.40;;;6.90;99.90;;;;;;4983132;28;20084;-70
2023/12/15 09:07:23;;;;;;;10.98;3.70;;;6.90;99.90;;;;;;4967545;28;20045;-70
2023/12/15 09:09:49;;;;;;;11.63;2.97;;;6.90;99.90;;;;;;4984151;28;20049;-70
2023/12/15 09:12:15;;;;;;;24.42;4.80;;;7.00;99.90;;;;;;4985509;28;20054;-70
2023/12/15 09:14:40;;;;;;;6.85;3.08;;;7.00;99.90;;;;;;4988485;28;20415;-70
2023/12/15 09:17:11;;;;;;;15.63;3.63;;;7.00;99.90;;;;;;4973369;28;20054;-70
2023/12/15 09:19:38;;;;;;;10.77;2.67;;;7.00;99.90;;;;;;4991924;28;20629;-70
2023/12/15 09:22:05;;;;;;;17.80;3.88;;;7.00;99.90;;;;;;4988045;28;20467;-70
2023/12/15 09:24:31;;;;;;;22.10;4.70;;;7.00;99.90;;;;;;4986431;28;20056;-71
2023/12/15 09:26:57;;;;;;;4.90;1.35;;;7.10;99.90;;;;;;5004893;28;20503;-68
2023/12/15 09:29:22;;;;;;;1.73;0.85;;;7.10;99.90;;;;;;5018008;28;20087;-68
2023/12/15 09:31:48;;;;;;;17.30;3.33;;;7.00;99.90;;;;;;4987853;28;20068;-69
2023/12/15 09:34:14;;;;;;;11.88;3.08;;;7.10;99.90;;;;;;5005191;28;20045;-68
2023/12/15 09:36:39;;;;;;;10.70;2.38;;;7.10;99.90;;;;;;5005707;28;20065;-68
2023/12/15 09:39:05;;;;;;;16.02;3.75;;;7.10;99.90;;;;;;5004404;28;20030;-68
2023/12/15 09:41:32;;;;;;;37.33;6.05;;;7.10;99.90;;;;;;5019120;28;20191;-69
2023/12/15 09:43:58;;;;;;;26.90;4.10;;;7.20;99.90;;;;;;5005393;28;20068;-68
2023/12/15 09:46:24;;;;;;;18.23;2.97;;;7.20;99.90;;;;;;5003727;28;20407;-68
2023/12/15 09:48:50;;;;;;;4.20;1.38;;;7.20;99.90;;;;;;4987360;28;20046;-69
2023/12/15 09:51:24;;;;;;;18.42;3.65;;;7.20;99.90;;;;;;5019419;28;20054;-70
2023/12/15 09:53:51;;;;;;;5.55;1.48;;;7.30;99.90;;;;;;5005665;28;20516;-69
2023/12/15 09:56:17;;;;;;;18.23;3.78;;;7.30;99.90;;;;;;4987167;28;20399;-69
2023/12/15 09:58:44;;;;;;;24.67;4.57;;;7.30;99.90;;;;;;5004990;28;20496;-68
2023/12/15 10:01:11;;;;;;;49.05;5.93;;;7.40;99.90;;;;;;5004462;28;20042;-69
2023/12/15 10:03:37;;;;;;;40.15;5.88;;;7.50;99.90;;;;;;4986672;28;20112;-69
2023/12/15 10:06:03;;;;;;;45.90;7.10;;;7.50;99.90;;;;;;5004798;28;20128;-69
2023/12/15 10:08:43;;;;;;;22.55;3.92;;;7.50;99.90;;;;;;5002195;28;20075;-69
2023/12/15 10:11:09;;;;;;;32.13;5.75;;;7.50;99.90;;;;;;5020388;28;20113;-69
2023/12/15 10:13:35;;;;;;;35.90;4.70;;;7.60;99.90;;;;;;5004058;28;20053;-69
2023/12/15 10:16:01;;;;;;;28.48;5.93;;;7.60;99.90;;;;;;4986462;28;20038;-69
2023/12/15 10:18:27;;;;;;;40.67;6.00;;;7.60;99.90;;;;;;4977991;28;20037;-68
2023/12/15 10:20:56;;;;;;;11.02;2.40;;;7.70;99.90;;;;;;5002235;28;20041;-69
2023/12/15 10:23:29;;;;;;;42.42;6.47;;;7.80;99.90;;;;;;5001452;28;20046;-69
2023/12/15 10:25:58;;;;;;;12.10;2.17;;;7.70;99.90;;;;;;4999480;28;20054;-68
2023/12/15 10:28:24;;;;;;;14.82;2.05;;;7.80;99.90;;;;;;4985824;28;20065;-68
2023/12/15 10:30:51;;;;;;;12.77;2.25;;;7.80;99.90;;;;;;4964763;28;20525;-68
2023/12/15 10:33:18;;;;;;;27.15;4.10;;;7.80;99.90;;;;;;5018338;28;20119;-69
2023/12/15 10:35:48;;;;;;;37.38;6.70;;;7.80;99.90;;;;;;5003777;28;20118;-69
2023/12/15 10:38:16;;;;;;;21.07;3.80;;;7.90;99.90;;;;;;5003338;28;20119;-68
2023/12/15 10:40:42;;;;;;;27.63;3.40;;;7.90;99.90;;;;;;5006944;28;20038;-69
2023/12/15 10:43:10;;;;;;;13.43;2.45;;;7.90;99.90;;;;;;4985261;28;20058;-68
2023/12/15 10:45:36;;;;;;;13.73;3.13;;;7.90;99.90;;;;;;4986389;28;20042;-68
2023/12/15 10:48:03;;;;;;;19.42;3.38;;;8.00;99.90;;;;;;4984201;28;20536;-69
2023/12/15 10:50:30;;;;;;;20.35;3.40;;;8.00;99.90;;;;;;4984403;28;20541;-68
2023/12/15 10:52:57;;;;;;;25.92;4.00;;;8.00;99.90;;;;;;5000655;28;20058;-68
2023/12/15 10:55:25;;;;;;;18.00;3.85;;;8.00;99.90;;;;;;5002020;28;20275;-68
2023/12/15 10:57:51;;;;;;;29.48;4.47;;;8.10;99.90;;;;;;5014887;28;20045;-69
2023/12/15 11:00:18;;;;;;;19.50;3.17;;;8.10;99.90;;;;;;5014521;28;20041;-69
2023/12/15 11:02:45;;;;;;;35.17;5.53;;;8.20;99.90;;;;;;4990064;28;20080;-68
2023/12/15 11:05:11;;;;;;;41.90;5.03;;;8.20;99.90;;;;;;4980837;28;20050;-68
2023/12/15 11:07:39;;;;;;;30.00;4.25;;;8.20;99.90;;;;;;4993140;28;20080;-68
2023/12/15 11:10:08;;;;;;;15.90;3.08;;;8.20;99.90;;;;;;4984117;28;20057;-69
2023/12/15 11:12:42;;;;;;;9.43;2.17;;;8.20;99.90;;;;;;4984084;28;20061;-68
2023/12/15 11:15:18;;;;;;;32.55;5.05;;;8.30;99.90;;;;;;4985678;28;20058;-69
2023/12/15 11:17:48;;;;;;;25.75;3.65;;;8.30;99.90;;;;;;4999877;28;20049;-68
2023/12/15 11:20:24;;;;;;;;;;;8.30;99.90;;;;;;4985983;28;20046;-69
2023/12/15 11:23:08;;;;;;;16.77;2.72;;;8.30;99.90;;;;;;5002254;28;20401;-69
2023/12/15 11:25:52;;;;;;;34.67;6.28;;;8.30;99.90;;;;;;5021306;28;20507;-69
2023/12/15 11:28:20;;;;;;;38.17;4.50;;;8.40;99.90;;;;;;4985782;28;20507;-69
2023/12/15 11:30:48;;;;;;;27.15;5.20;;;8.30;99.90;;;;;;5010060;28;20057;-69
2023/12/15 11:33:29;;;;;;;17.52;1.92;;;8.40;99.90;;;;;;5001481;28;20042;-68
2023/12/15 11:36:03;;;;;;;21.25;3.08;;;8.30;99.90;;;;;;5005106;28;20050;-69
2023/12/15 11:38:30;;;;;;;26.92;5.25;;;8.40;99.90;;;;;;5003013;28;20309;-68
2023/12/15 11:40:57;;;;;;;29.25;4.40;;;8.40;99.90;;;;;;4985078;28;20050;-69
2023/12/15 11:43:23;;;;;;;31.23;4.30;;;8.40;99.90;;;;;;4985480;28;20041;-69
2023/12/15 11:45:51;;;;;;;14.07;3.05;;;8.40;99.90;;;;;;5004688;28;20123;-69
2023/12/15 11:48:17;;;;;;;22.83;5.13;;;8.40;99.90;;;;;;4981074;28;20121;-69
2023/12/15 11:50:47;;;;;;;3.75;1.42;;;8.40;99.90;;;;;;4964664;28;20054;-68
2023/12/15 11:53:14;;;;;;;21.75;3.33;;;8.40;99.90;;;;;;4983069;28;20054;-69
2023/12/15 11:55:46;;;;;;;17.23;3.58;;;8.50;99.90;;;;;;5001989;28;20835;-69
2023/12/15 11:58:17;;;;;;;15.10;3.38;;;8.50;99.90;;;;;;4998520;28;20046;-69
2023/12/15 12:00:44;;;;;;;27.70;5.30;;;8.50;99.90;;;;;;5000059;28;20045;-68
2023/12/15 12:03:15;;;;;;;38.03;5.30;;;8.50;99.90;;;;;;4983090;28;20125;-68
2023/12/15 12:05:42;;;;;;;15.68;2.10;;;8.50;99.90;;;;;;5003917;28;20502;-69
2023/12/15 12:08:09;;;;;;;10.63;2.50;;;8.50;99.90;;;;;;4987128;28;20097;-69
2023/12/15 12:10:39;;;;;;;22.15;4.32;;;8.60;99.90;;;;;;5001647;28;20407;-69
2023/12/15 12:13:07;;;;;;;37.20;5.53;;;8.60;99.90;;;;;;5018629;28;20041;-69
2023/12/15 12:15:49;;;;;;;29.50;5.05;;;8.60;99.90;;;;;;4986849;28;20462;-69
2023/12/15 12:18:15;;;;;;;20.75;3.75;;;8.60;99.90;;;;;;5004117;28;20451;-69
2023/12/15 12:20:41;;;;;;;20.98;3.25;;;8.70;99.90;;;;;;4982873;28;20045;-68
2023/12/15 12:23:07;;;;;;;32.50;5.82;;;8.70;99.90;;;;;;5000206;28;20254;-69
2023/12/15 12:25:33;;;;;;;13.05;2.58;;;8.80;99.90;;;;;;4983926;28;20109;-69
2023/12/15 12:27:58;;;;;;;13.07;2.42;;;8.80;99.90;;;;;;5004551;28;20081;-69
2023/12/15 12:30:24;;;;;;;22.33;3.92;;;8.80;99.90;;;;;;5001798;28;20583;-69
2023/12/15 12:32:50;;;;;;;15.32;2.08;;;8.80;99.90;;;;;;5000973;28;20103;-69
2023/12/15 12:35:15;;;;;;;13.05;3.10;;;8.90;99.90;;;;;;5004809;28;20113;-69
2023/12/15 12:37:41;;;;;;;28.80;3.75;;;8.90;99.90;;;;;;4965935;28;20093;-68
2023/12/15 12:40:08;;;;;;;31.90;5.80;;;9.00;99.90;;;;;;5000955;28;20136;-69
2023/12/15 12:42:33;;;;;;;37.28;5.90;;;9.00;99.90;;;;;;4983319;28;20677;-69